Aviation Digital Data Service (ADDS)

Output produced by METARs form (0944 UTC 19 November 2018)
found at http://www.aviationweather.gov/metar/data/
 
RJOA 190900Z 34003KT 9999 FEW020 10/04 Q1018
TAF RJOA 190505Z 1906/2012 34006KT 9999 FEW025 SCT040